CEFAS Endeavour — VQHF3 — position and weather

sailwx.info

Track history (hours):
 
Tides and Currents Weather Stations Pressure Air Temp Water Temp Dewpoint Dewpoint Depression Visibility Wind Speed Wind Dir Waves Ship Positions

Oceanographic research ship CEFAS Endeavour (UK)

Detailed information on ship capabilities available from University of Delaware's Ocean Information Center.

Last reported at 2017-Aug-10 05:38 UTC. Time now 2017-Aug-17 01:39 UTC.
Position N 55°39' E 006°59'.

Length 74 m; draft 8.7 m.

Type: Ship. MMSI: 235005270.

Date/timePositionNaut miles runAvg speedWind from/ knotsBaromVisibWave heightAir tempDewpointWater temp
2017-Aug-10 05:38N 55°39' E 006°59'1 8.8
2017-Aug-10 05:30N 55°38' E 007°01'5 9.0
2017-Aug-10 04:57N 55°37' E 007°09'1 2.3
2017-Aug-10 04:30N 55°37' E 007°11'  
2017-Aug-07 15:21N 54°43' E 005°03'3 5.7
2017-Aug-07 14:53N 54°41' E 005°07'3 6.5
2017-Aug-07 14:30N 54°40' E 005°11'5 9.5
2017-Aug-07 13:59N 54°39' E 005°19'611.0
2017-Aug-07 13:28N 54°36' E 005°28'2 4.8
2017-Aug-07 13:00N 54°36' E 005°31'1 2.5
2017-Aug-07 12:30N 54°37' E 005°32'2 3.9
2017-Aug-07 11:59N 54°39' E 005°32'3 5.3
2017-Aug-07 11:24N 54°40' E 005°38'45 7.6
2017-Aug-07 05:30N 54°51' E 006°53'510.8
2017-Aug-07 05:00N 54°54' E 007°00'3 5.6
2017-Aug-07 04:30N 54°56' E 007°04'2 3.7
2017-Aug-07 04:00N 54°55' E 007°01'1 2.7
2017-Aug-07 03:30N 54°54' E 006°60'4 8.8
2017-Aug-07 03:00N 54°51' E 006°56'5 9.4
2017-Aug-07 02:30N 54°47' E 006°51'5 9.1
2017-Aug-07 02:00N 54°43' E 006°47'158 4.3
2017-Aug-05 13:02N 52°43' E 003°54'010.4
2017-Aug-05 13:00N 52°43' E 003°54'510.4
2017-Aug-05 12:30N 52°43' E 004°03'510.3
2017-Aug-05 12:00N 52°45' E 004°11'2 3.4
2017-Aug-05 11:30N 52°44' E 004°14'2 3.6
2017-Aug-05 11:00N 52°42' E 004°13'2 3.3
2017-Aug-05 10:31N 52°41' E 004°11'5 9.0
2017-Aug-05 10:00N 52°38' E 004°06'511.1
2017-Aug-05 09:30N 52°34' E 003°59'1810.4
2017-Aug-05 07:44N 52°16' E 003°52'310.9
2017-Aug-05 07:29N 52°13' E 003°53'611.2
2017-Aug-05 07:00N 52°08' E 003°55'510.2
2017-Aug-05 06:30N 52°03' E 003°52'612.2
2017-Aug-05 06:00N 51°57' E 003°50'4 7.7
2017-Aug-05 05:30N 51°54' E 003°47'510.0
2017-Aug-05 05:00N 51°51' E 003°41'2 3.4
2017-Aug-05 04:30N 51°49' E 003°39'2 3.7
2017-Aug-05 04:00N 51°48' E 003°36'1 2.4
2017-Aug-05 03:30N 51°48' E 003°34'11 7.9
2017-Aug-05 02:08N 51°43' E 003°19'0 0.0
2017-Aug-05 02:00N 51°43' E 003°19'0 0.0
2017-Aug-05 01:30N 51°43' E 003°19'1 1.6
2017-Aug-05 01:00N 51°42' E 003°18'3 5.4
2017-Aug-05 00:30N 51°41' E 003°14'3 5.3
2017-Aug-05 00:00N 51°39' E 003°12'3 5.7
2017-Aug-04 23:29N 51°36' E 003°11'3 5.8
2017-Aug-04 22:59N 51°33' E 003°10'3 6.5
2017-Aug-04 22:30N 51°31' E 003°06'3 6.3
2017-Aug-04 22:00N 51°29' E 003°02'3 6.5
2017-Aug-04 21:30N 51°28' E 002°58'3 7.0
2017-Aug-04 21:00N 51°28' E 002°52'2 4.9
2017-Aug-04 20:30N 51°30' E 002°50'3 5.0
2017-Aug-04 20:00N 51°33' E 002°49'2 4.3
2017-Aug-04 19:30N 51°34' E 002°47'2 3.3
2017-Aug-04 19:00N 51°36' E 002°48'1 1.7
2017-Aug-04 18:30N 51°35' E 002°47'2 3.8
2017-Aug-04 18:00N 51°33' E 002°46'2 4.2
2017-Aug-04 17:29N 51°33' E 002°42'611.1
2017-Aug-04 16:59N 51°35' E 002°34'610.9
2017-Aug-04 16:27N 51°38' E 002°26'611.3
2017-Aug-04 15:56N 51°42' E 002°18'711.0
2017-Aug-04 15:18N 51°46' E 002°10'412.2
2017-Aug-04 15:00N 51°44' E 002°04'1211.9
2017-Aug-04 14:00N 51°43' E 001°45'2 3.3
2017-Aug-04 13:30N 51°44' E 001°44'2 3.7
2017-Aug-04 13:00N 51°46' E 001°46'2 3.4
2017-Aug-04 12:30N 51°47' E 001°47'0 0.8
2017-Aug-04 12:00N 51°48' E 001°47'3 5.2
2017-Aug-04 11:30N 51°49' E 001°44'5 9.9
2017-Aug-04 11:00N 51°54' E 001°45'510.2
2017-Aug-04 10:30N 51°59' E 001°45'5 9.3
2017-Aug-04 10:00N 52°04' E 001°45'611.5
2017-Aug-04 09:30N 52°10' E 001°45'1511.9
2017-Aug-04 08:13N 52°25' E 001°47'211.6
2017-Aug-04 08:00N 52°28' E 001°47'1 2.5
2017-Aug-04 07:26N 52°28' E 001°45'0 0.3
2017-Aug-04 06:56N 52°28' E 001°45'0 0.0
2017-Aug-04 06:23N 52°28' E 001°45'0 0.0
2017-Aug-04 05:53N 52°28' E 001°45'0 0.0
2017-Aug-04 05:29N 52°28' E 001°45'0 0.0
2017-Aug-04 04:56N 52°28' E 001°45'0 0.0
2017-Aug-04 04:26N 52°28' E 001°45'0 0.0
2017-Aug-04 03:53N 52°28' E 001°45'0 0.0
2017-Aug-04 03:29N 52°28' E 001°45'0 0.0
2017-Aug-03 12:08N 52°28' E 001°45'0 0.0
2017-Aug-03 11:50N 52°28' E 001°45'0 0.0
2017-Aug-03 11:26N 52°28' E 001°45'0 0.0
2017-Aug-03 10:59N 52°28' E 001°45'0 0.0
2017-Aug-03 10:29N 52°28' E 001°45'0 0.0
2017-Aug-03 09:59N 52°28' E 001°45'0 0.0
2017-Aug-03 09:26N 52°28' E 001°45'0 0.0
2017-Aug-03 08:56N 52°28' E 001°45'0 0.0
2017-Aug-03 08:29N 52°28' E 001°45'0 0.0
2017-Aug-03 07:59N 52°28' E 001°45'0 0.0
2017-Aug-03 07:29N 52°28' E 001°45'0 0.0
2017-Aug-03 06:59N 52°28' E 001°45'0 0.0
2017-Aug-03 06:29N 52°28' E 001°45'0 0.0
2017-Aug-03 05:59N 52°28' E 001°45'0 0.0
2017-Aug-03 05:29N 52°28' E 001°45'0 0.0
2017-Aug-03 04:56N 52°28' E 001°45'0 0.0
2017-Aug-03 04:29N 52°28' E 001°45'0 0.0
2017-Aug-03 03:44N 52°28' E 001°45'0 0.0
2017-Aug-03 03:23N 52°28' E 001°45'0 0.0
2017-Aug-02 13:26N 52°28' E 001°45'0 0.0
2017-Aug-02 12:56N 52°28' E 001°45'0 0.0
2017-Aug-02 12:29N 52°28' E 001°45'0 0.0
2017-Aug-02 11:59N 52°28' E 001°45'0 0.0
2017-Aug-02 11:29N 52°28' E 001°45'0 0.0
2017-Aug-02 10:59N 52°28' E 001°45'0 0.0
2017-Aug-02 10:29N 52°28' E 001°45'0 0.0
2017-Aug-02 09:59N 52°28' E 001°45'0 0.0
2017-Aug-02 09:26N 52°28' E 001°45'0 0.0
2017-Aug-02 08:59N 52°28' E 001°45'0 0.0
2017-Aug-02 08:29N 52°28' E 001°45'0 0.0
2017-Aug-02 07:56N 52°28' E 001°45'0 0.0
2017-Aug-02 07:29N 52°28' E 001°45'0 0.0
2017-Aug-02 06:56N 52°28' E 001°45'0 0.0
2017-Aug-02 06:29N 52°28' E 001°45'0 0.0
2017-Aug-02 05:59N 52°28' E 001°45'0 0.0
2017-Aug-02 05:29N 52°28' E 001°45'0 0.0
2017-Aug-02 04:56N 52°28' E 001°45'0 0.0
2017-Aug-02 04:17N 52°28' E 001°45'0 0.0
2017-Aug-02 03:56N 52°28' E 001°45'0 0.0
2017-Aug-02 03:29N 52°28' E 001°45'0 0.0
2017-Aug-02 02:53N 52°28' E 001°45'0 0.0
2017-Aug-02 02:26N 52°28' E 001°45'0 0.0
2017-Aug-02 01:56N 52°28' E 001°45'  
Track history (hours):
 
Tides and Currents Weather Stations Pressure Air Temp Water Temp Dewpoint Dewpoint Depression Visibility Wind Speed Wind Dir Waves Ship Positions

Oceanographic research ship CEFAS Endeavour (UK)

Detailed information on ship capabilities available from University of Delaware's Ocean Information Center.

Last reported at 2017-Aug-10 05:38 UTC. Time now 2017-Aug-17 01:39 UTC.
Position N 55°39' E 006°59'.

Length 74 m; draft 8.7 m.

Type: Ship. MMSI: 235005270.

Date/timePositionNaut miles runAvg speedWind from/ knotsBaromVisibWave heightAir tempDewpointWater temp
2017-Aug-10 05:38N 55°39' E 006°59'1 8.8
2017-Aug-10 05:30N 55°38' E 007°01'5 9.0
2017-Aug-10 04:57N 55°37' E 007°09'1 2.3
2017-Aug-10 04:30N 55°37' E 007°11'  
2017-Aug-07 15:21N 54°43' E 005°03'3 5.7
2017-Aug-07 14:53N 54°41' E 005°07'3 6.5
2017-Aug-07 14:30N 54°40' E 005°11'5 9.5
2017-Aug-07 13:59N 54°39' E 005°19'611.0
2017-Aug-07 13:28N 54°36' E 005°28'2 4.8
2017-Aug-07 13:00N 54°36' E 005°31'1 2.5
2017-Aug-07 12:30N 54°37' E 005°32'2 3.9
2017-Aug-07 11:59N 54°39' E 005°32'3 5.3
2017-Aug-07 11:24N 54°40' E 005°38'45 7.6
2017-Aug-07 05:30N 54°51' E 006°53'510.8
2017-Aug-07 05:00N 54°54' E 007°00'3 5.6
2017-Aug-07 04:30N 54°56' E 007°04'2 3.7
2017-Aug-07 04:00N 54°55' E 007°01'1 2.7
2017-Aug-07 03:30N 54°54' E 006°60'4 8.8
2017-Aug-07 03:00N 54°51' E 006°56'5 9.4
2017-Aug-07 02:30N 54°47' E 006°51'5 9.1
2017-Aug-07 02:00N 54°43' E 006°47'158 4.3
2017-Aug-05 13:02N 52°43' E 003°54'010.4
2017-Aug-05 13:00N 52°43' E 003°54'510.4
2017-Aug-05 12:30N 52°43' E 004°03'510.3
2017-Aug-05 12:00N 52°45' E 004°11'2 3.4
2017-Aug-05 11:30N 52°44' E 004°14'2 3.6
2017-Aug-05 11:00N 52°42' E 004°13'2 3.3
2017-Aug-05 10:31N 52°41' E 004°11'5 9.0
2017-Aug-05 10:00N 52°38' E 004°06'511.1
2017-Aug-05 09:30N 52°34' E 003°59'1810.4
2017-Aug-05 07:44N 52°16' E 003°52'310.9
2017-Aug-05 07:29N 52°13' E 003°53'611.2
2017-Aug-05 07:00N 52°08' E 003°55'510.2
2017-Aug-05 06:30N 52°03' E 003°52'612.2
2017-Aug-05 06:00N 51°57' E 003°50'4 7.7
2017-Aug-05 05:30N 51°54' E 003°47'510.0
2017-Aug-05 05:00N 51°51' E 003°41'2 3.4
2017-Aug-05 04:30N 51°49' E 003°39'2 3.7
2017-Aug-05 04:00N 51°48' E 003°36'1 2.4
2017-Aug-05 03:30N 51°48' E 003°34'11 7.9
2017-Aug-05 02:08N 51°43' E 003°19'0 0.0
2017-Aug-05 02:00N 51°43' E 003°19'0 0.0
2017-Aug-05 01:30N 51°43' E 003°19'1 1.6
2017-Aug-05 01:00N 51°42' E 003°18'3 5.4
2017-Aug-05 00:30N 51°41' E 003°14'3 5.3
2017-Aug-05 00:00N 51°39' E 003°12'3 5.7
2017-Aug-04 23:29N 51°36' E 003°11'3 5.8
2017-Aug-04 22:59N 51°33' E 003°10'3 6.5
2017-Aug-04 22:30N 51°31' E 003°06'3 6.3
2017-Aug-04 22:00N 51°29' E 003°02'3 6.5
2017-Aug-04 21:30N 51°28' E 002°58'3 7.0
2017-Aug-04 21:00N 51°28' E 002°52'2 4.9
2017-Aug-04 20:30N 51°30' E 002°50'3 5.0
2017-Aug-04 20:00N 51°33' E 002°49'2 4.3
2017-Aug-04 19:30N 51°34' E 002°47'2 3.3
2017-Aug-04 19:00N 51°36' E 002°48'1 1.7
2017-Aug-04 18:30N 51°35' E 002°47'2 3.8
2017-Aug-04 18:00N 51°33' E 002°46'2 4.2
2017-Aug-04 17:29N 51°33' E 002°42'611.1
2017-Aug-04 16:59N 51°35' E 002°34'610.9
2017-Aug-04 16:27N 51°38' E 002°26'611.3
2017-Aug-04 15:56N 51°42' E 002°18'711.0
2017-Aug-04 15:18N 51°46' E 002°10'412.2
2017-Aug-04 15:00N 51°44' E 002°04'1211.9
2017-Aug-04 14:00N 51°43' E 001°45'2 3.3
2017-Aug-04 13:30N 51°44' E 001°44'2 3.7
2017-Aug-04 13:00N 51°46' E 001°46'2 3.4
2017-Aug-04 12:30N 51°47' E 001°47'0 0.8
2017-Aug-04 12:00N 51°48' E 001°47'3 5.2
2017-Aug-04 11:30N 51°49' E 001°44'5 9.9
2017-Aug-04 11:00N 51°54' E 001°45'510.2
2017-Aug-04 10:30N 51°59' E 001°45'5 9.3
2017-Aug-04 10:00N 52°04' E 001°45'611.5
2017-Aug-04 09:30N 52°10' E 001°45'1511.9
2017-Aug-04 08:13N 52°25' E 001°47'211.6
2017-Aug-04 08:00N 52°28' E 001°47'1 2.5
2017-Aug-04 07:26N 52°28' E 001°45'0 0.3
2017-Aug-04 06:56N 52°28' E 001°45'0 0.0
2017-Aug-04 06:23N 52°28' E 001°45'0 0.0
2017-Aug-04 05:53N 52°28' E 001°45'0 0.0
2017-Aug-04 05:29N 52°28' E 001°45'0 0.0
2017-Aug-04 04:56N 52°28' E 001°45'0 0.0
2017-Aug-04 04:26N 52°28' E 001°45'0 0.0
2017-Aug-04 03:53N 52°28' E 001°45'0 0.0
2017-Aug-04 03:29N 52°28' E 001°45'0 0.0
2017-Aug-03 12:08N 52°28' E 001°45'0 0.0
2017-Aug-03 11:50N 52°28' E 001°45'0 0.0
2017-Aug-03 11:26N 52°28' E 001°45'0 0.0
2017-Aug-03 10:59N 52°28' E 001°45'0 0.0
2017-Aug-03 10:29N 52°28' E 001°45'0 0.0
2017-Aug-03 09:59N 52°28' E 001°45'0 0.0
2017-Aug-03 09:26N 52°28' E 001°45'0 0.0
2017-Aug-03 08:56N 52°28' E 001°45'0 0.0
2017-Aug-03 08:29N 52°28' E 001°45'0 0.0
2017-Aug-03 07:59N 52°28' E 001°45'0 0.0
2017-Aug-03 07:29N 52°28' E 001°45'0 0.0
2017-Aug-03 06:59N 52°28' E 001°45'0 0.0
2017-Aug-03 06:29N 52°28' E 001°45'0 0.0
2017-Aug-03 05:59N 52°28' E 001°45'0 0.0
2017-Aug-03 05:29N 52°28' E 001°45'0 0.0
2017-Aug-03 04:56N 52°28' E 001°45'0 0.0
2017-Aug-03 04:29N 52°28' E 001°45'0 0.0
2017-Aug-03 03:44N 52°28' E 001°45'0 0.0
2017-Aug-03 03:23N 52°28' E 001°45'0 0.0
2017-Aug-02 13:26N 52°28' E 001°45'0 0.0
2017-Aug-02 12:56N 52°28' E 001°45'0 0.0
2017-Aug-02 12:29N 52°28' E 001°45'0 0.0
2017-Aug-02 11:59N 52°28' E 001°45'0 0.0
2017-Aug-02 11:29N 52°28' E 001°45'0 0.0
2017-Aug-02 10:59N 52°28' E 001°45'0 0.0
2017-Aug-02 10:29N 52°28' E 001°45'0 0.0
2017-Aug-02 09:59N 52°28' E 001°45'0 0.0
2017-Aug-02 09:26N 52°28' E 001°45'0 0.0
2017-Aug-02 08:59N 52°28' E 001°45'0 0.0
2017-Aug-02 08:29N 52°28' E 001°45'0 0.0
2017-Aug-02 07:56N 52°28' E 001°45'0 0.0
2017-Aug-02 07:29N 52°28' E 001°45'0 0.0
2017-Aug-02 06:56N 52°28' E 001°45'0 0.0
2017-Aug-02 06:29N 52°28' E 001°45'0 0.0
2017-Aug-02 05:59N 52°28' E 001°45'0 0.0
2017-Aug-02 05:29N 52°28' E 001°45'0 0.0
2017-Aug-02 04:56N 52°28' E 001°45'0 0.0
2017-Aug-02 04:17N 52°28' E 001°45'0 0.0
2017-Aug-02 03:56N 52°28' E 001°45'0 0.0
2017-Aug-02 03:29N 52°28' E 001°45'0 0.0
2017-Aug-02 02:53N 52°28' E 001°45'0 0.0
2017-Aug-02 02:26N 52°28' E 001°45'0 0.0
2017-Aug-02 01:56N 52°28' E 001°45'  

Dump ship's entire track history